createdAt,value
2019-05-19T00:01:38.009Z,73.90
2019-05-19T00:04:07.932Z,74.90
2019-05-19T00:06:37.800Z,75.70
2019-05-19T00:09:07.638Z,76.00
2019-05-19T00:11:37.752Z,76.50
2019-05-19T00:14:07.610Z,76.40
2019-05-19T00:16:39.175Z,76.90
2019-05-19T00:19:09.029Z,76.30
2019-05-19T00:21:38.895Z,76.50
2019-05-19T00:24:08.737Z,77.10
2019-05-19T00:26:38.608Z,77.50
2019-05-19T00:29:09.534Z,77.30
2019-05-19T00:31:39.391Z,77.70
2019-05-19T00:34:09.250Z,77.70
2019-05-19T00:36:39.113Z,78.00
2019-05-19T00:39:08.966Z,77.60
2019-05-19T00:41:38.808Z,77.40
2019-05-19T00:44:09.745Z,77.30
2019-05-19T00:46:39.591Z,77.40
2019-05-19T00:49:09.458Z,77.80
2019-05-19T00:51:39.751Z,78.10
2019-05-19T00:54:09.598Z,78.00
2019-05-19T00:56:39.438Z,76.80
2019-05-19T00:59:09.669Z,77.20
2019-05-19T01:01:39.533Z,77.40
2019-05-19T01:04:09.386Z,77.20
2019-05-19T01:06:39.239Z,77.70
2019-05-19T01:09:09.090Z,77.90
2019-05-19T01:11:38.944Z,78.00
2019-05-19T01:14:08.852Z,78.80
2019-05-19T01:16:38.680Z,78.30
2019-05-19T01:19:08.539Z,77.70
2019-05-19T01:21:39.120Z,76.90
2019-05-19T01:24:08.975Z,77.30
2019-05-19T01:26:38.818Z,77.00
2019-05-19T01:29:08.669Z,75.70
2019-05-19T01:31:38.529Z,75.00
2019-05-19T01:34:08.388Z,76.00
2019-05-19T01:36:38.312Z,75.20
2019-05-19T01:39:08.161Z,74.00
2019-05-19T01:41:38.001Z,73.60
2019-05-19T01:44:07.914Z,74.00
2019-05-19T01:46:37.758Z,73.20
2019-05-19T01:49:08.130Z,72.10
2019-05-19T01:51:37.958Z,72.20
2019-05-19T01:54:09.440Z,72.00
2019-05-19T01:56:39.640Z,72.00
2019-05-19T01:59:09.513Z,71.10
2019-05-19T02:01:39.681Z,71.60
2019-05-19T02:04:09.542Z,71.10
2019-05-19T02:06:39.389Z,72.10
2019-05-19T02:09:09.288Z,72.20
2019-05-19T02:11:39.434Z,72.30
2019-05-19T02:14:09.290Z,72.00
2019-05-19T02:16:40.217Z,72.50
2019-05-19T02:19:10.085Z,73.60
2019-05-19T02:21:39.941Z,74.00
2019-05-19T02:24:09.795Z,75.10
2019-05-19T02:26:39.642Z,76.60
2019-05-19T02:29:09.486Z,77.00
2019-05-19T02:31:39.335Z,76.80
2019-05-19T02:34:09.193Z,77.10
2019-05-19T02:36:39.039Z,77.50
2019-05-19T02:39:08.888Z,78.20
2019-05-19T02:41:39.081Z,78.00
2019-05-19T02:44:08.928Z,78.60
2019-05-19T02:46:38.790Z,78.40
2019-05-19T02:49:08.646Z,78.30
2019-05-19T02:51:38.473Z,78.90
2019-05-19T02:54:08.762Z,79.70
2019-05-19T02:56:38.598Z,79.10
2019-05-19T02:59:08.460Z,79.30
2019-05-19T03:01:40.062Z,79.70
2019-05-19T03:04:10.079Z,79.90
2019-05-19T03:06:40.000Z,79.40
2019-05-19T03:09:09.907Z,78.50
2019-05-19T03:11:39.822Z,78.40
2019-05-19T03:14:09.737Z,78.20
2019-05-19T03:16:39.652Z,77.40
2019-05-19T03:19:09.566Z,77.50
2019-05-19T03:21:39.481Z,78.30
2019-05-19T03:24:09.806Z,78.60
2019-05-19T03:26:39.755Z,78.50
2019-05-19T03:29:12.321Z,79.00
2019-05-19T03:31:46.726Z,79.50
2019-05-19T03:34:16.853Z,79.40
2019-05-19T03:36:46.691Z,79.50
2019-05-19T03:39:16.541Z,79.90
2019-05-19T03:41:46.713Z,79.70
2019-05-19T03:44:16.599Z,78.80
2019-05-19T03:46:46.439Z,78.80
2019-05-19T03:49:17.043Z,79.20
2019-05-19T03:51:46.879Z,79.30
2019-05-19T03:54:16.728Z,79.40
2019-05-19T03:56:46.577Z,79.50
2019-05-19T03:59:16.500Z,79.40
2019-05-19T04:01:46.404Z,79.00
2019-05-19T04:04:16.265Z,79.30
2019-05-19T04:06:46.152Z,79.90
2019-05-19T04:09:17.519Z,80.00
2019-05-19T04:11:47.549Z,80.40
2019-05-19T04:14:17.407Z,79.80
2019-05-19T04:16:48.885Z,79.90
2019-05-19T04:19:18.725Z,79.90
2019-05-19T04:21:49.754Z,80.40
2019-05-19T04:24:19.788Z,81.20
2019-05-19T04:26:49.638Z,80.70
2019-05-19T04:29:19.478Z,80.60
2019-05-19T04:31:52.118Z,80.40
2019-05-19T04:34:21.966Z,79.80
2019-05-19T04:36:51.830Z,79.20
2019-05-19T04:39:21.686Z,79.50
2019-05-19T04:41:51.543Z,79.60
2019-05-19T04:44:21.415Z,79.70
2019-05-19T04:46:51.261Z,80.40
2019-05-19T04:49:21.104Z,80.30
2019-05-19T04:52:05.545Z,80.20
2019-05-19T04:54:23.148Z,80.00
2019-05-19T04:56:52.981Z,80.00
2019-05-19T04:59:22.859Z,80.10
2019-05-19T05:01:52.703Z,80.30
2019-05-19T05:04:22.549Z,80.80
2019-05-19T05:06:52.405Z,80.40
2019-05-19T05:09:22.271Z,80.70
2019-05-19T05:11:52.113Z,80.20
2019-05-19T05:14:22.029Z,80.00
2019-05-19T05:16:51.933Z,80.40
2019-05-19T05:19:22.362Z,80.50
2019-05-19T05:21:52.223Z,80.10
2019-05-19T05:24:22.096Z,79.60
2019-05-19T05:26:51.943Z,80.00
2019-05-19T05:29:21.806Z,81.20
2019-05-19T05:31:51.664Z,80.20
2019-05-19T05:34:21.546Z,80.90
2019-05-19T05:36:51.419Z,81.60
2019-05-19T05:39:21.295Z,81.20
2019-05-19T05:41:51.148Z,81.90
2019-05-19T05:44:21.417Z,81.90
2019-05-19T05:46:51.266Z,81.40
2019-05-19T05:49:21.113Z,80.90
2019-05-19T05:51:50.959Z,81.40
2019-05-19T05:54:20.811Z,81.30
2019-05-19T05:56:50.670Z,82.00
2019-05-19T05:59:20.511Z,80.00
2019-05-19T06:01:50.377Z,81.60
2019-05-19T06:04:20.221Z,82.00
2019-05-19T06:06:50.065Z,82.00
2019-05-19T06:09:19.904Z,81.80
2019-05-19T06:11:49.803Z,82.00
2019-05-19T06:14:19.664Z,82.10
2019-05-19T06:16:49.517Z,82.40
2019-05-19T06:19:19.384Z,82.00
2019-05-19T06:21:49.253Z,78.30
2019-05-19T06:24:19.104Z,77.40
2019-05-19T06:26:48.946Z,77.30
2019-05-19T06:29:18.813Z,76.50
2019-05-19T06:31:48.656Z,76.20
2019-05-19T06:34:18.524Z,76.00
2019-05-19T06:36:48.408Z,75.20
2019-05-19T06:39:18.236Z,75.50
2019-05-19T06:41:48.084Z,75.90
2019-05-19T06:44:17.945Z,74.80
2019-05-19T06:46:47.853Z,74.20
2019-05-19T06:49:17.717Z,74.80
2019-05-19T06:51:47.569Z,74.80
2019-05-19T06:54:17.422Z,74.70
2019-05-19T06:56:48.061Z,74.60
2019-05-19T06:59:17.935Z,75.40
2019-05-19T07:01:47.773Z,74.80
2019-05-19T07:04:17.701Z,75.10
2019-05-19T07:06:47.616Z,75.00
2019-05-19T07:09:17.495Z,74.80
2019-05-19T07:11:47.358Z,74.90
2019-05-19T07:14:17.215Z,74.20
2019-05-19T07:16:47.063Z,75.10
2019-05-19T07:19:16.938Z,77.70
2019-05-19T07:21:47.093Z,76.90
2019-05-19T07:24:16.947Z,78.20
2019-05-19T07:26:47.129Z,75.60
2019-05-19T07:29:16.973Z,74.50
2019-05-19T07:31:46.841Z,74.00
2019-05-19T07:34:16.682Z,74.10
2019-05-19T07:36:46.885Z,74.70
2019-05-19T07:39:16.726Z,75.20
2019-05-19T07:41:46.574Z,76.30
2019-05-19T07:44:16.409Z,76.50
2019-05-19T07:46:46.263Z,78.70
2019-05-19T07:49:16.130Z,78.50
2019-05-19T07:51:45.998Z,77.60
2019-05-19T07:54:15.838Z,76.00
2019-05-19T07:56:45.695Z,76.70
2019-05-19T07:59:15.960Z,79.50
2019-05-19T08:01:45.797Z,79.90
2019-05-19T08:04:15.647Z,81.90
2019-05-19T08:06:45.493Z,82.10
2019-05-19T08:09:15.360Z,82.00
2019-05-19T08:11:45.643Z,81.90
2019-05-19T08:14:15.485Z,82.00
2019-05-19T08:16:45.346Z,82.40
2019-05-19T08:19:15.264Z,82.40
2019-05-19T08:21:45.101Z,83.50
2019-05-19T08:24:14.965Z,83.80
2019-05-19T08:26:44.807Z,83.90
2019-05-19T08:29:14.670Z,82.70
2019-05-19T08:31:44.513Z,84.30
2019-05-19T08:34:14.414Z,84.00
2019-05-19T08:36:44.233Z,84.30
2019-05-19T08:39:15.689Z,83.40
2019-05-19T08:41:45.547Z,83.90
2019-05-19T08:44:15.391Z,83.50
2019-05-19T08:46:45.236Z,83.50
2019-05-19T08:49:15.086Z,82.80
2019-05-19T08:51:44.946Z,82.70
2019-05-19T08:54:18.436Z,82.20
2019-05-19T08:56:46.346Z,81.50
2019-05-19T08:59:16.221Z,81.30
2019-05-19T09:01:46.381Z,82.20
2019-05-19T09:04:16.235Z,81.50
2019-05-19T09:06:46.076Z,79.40
2019-05-19T09:09:15.914Z,82.00
2019-05-19T09:11:47.915Z,81.30
2019-05-19T09:14:17.282Z,80.90
2019-05-19T09:16:47.469Z,79.80
2019-05-19T09:19:17.309Z,82.20
2019-05-19T09:21:47.175Z,81.30
2019-05-19T09:24:29.626Z,83.30
2019-05-19T09:26:48.465Z,82.60
2019-05-19T09:29:18.300Z,82.70
2019-05-19T09:31:48.151Z,81.90
2019-05-19T09:34:17.994Z,83.30
2019-05-19T09:36:47.847Z,81.80
2019-05-19T09:39:18.039Z,82.20
2019-05-19T09:41:49.666Z,82.60
2019-05-19T09:44:19.879Z,82.30
2019-05-19T09:46:49.768Z,82.00
2019-05-19T09:49:32.217Z,80.60
2019-05-19T09:52:03.469Z,80.80
2019-05-19T09:54:44.844Z,81.30
2019-05-19T09:57:04.966Z,81.70
2019-05-19T09:59:35.169Z,82.60
2019-05-19T10:02:05.065Z,82.50
2019-05-19T10:04:34.902Z,82.50
2019-05-19T10:07:05.722Z,82.90
2019-05-19T10:09:53.162Z,84.90
2019-05-19T10:12:23.034Z,88.10
2019-05-19T10:14:53.047Z,89.60
2019-05-19T10:17:22.886Z,88.70
2019-05-19T10:19:52.784Z,87.00
2019-05-19T10:22:22.598Z,87.20
2019-05-19T10:25:10.172Z,89.00
2019-05-19T10:27:23.914Z,88.30
2019-05-19T10:29:53.777Z,88.20
2019-05-19T10:32:23.674Z,87.20
2019-05-19T10:34:53.520Z,86.90
2019-05-19T10:37:23.379Z,86.50
2019-05-19T10:39:54.704Z,86.70
2019-05-19T10:42:24.576Z,86.60
2019-05-19T10:44:54.427Z,87.10
2019-05-19T10:47:24.292Z,85.30
2019-05-19T10:49:54.158Z,86.00
2019-05-19T10:52:23.997Z,86.20
2019-05-19T10:54:54.924Z,84.80
2019-05-19T10:57:26.357Z,85.90
2019-05-19T10:59:56.228Z,85.50
2019-05-19T11:02:27.706Z,85.10
2019-05-19T11:04:57.554Z,84.00
2019-05-19T11:07:27.411Z,85.10
2019-05-19T11:09:57.258Z,84.90
2019-05-19T11:12:27.102Z,84.70
2019-05-19T11:14:56.947Z,86.00
2019-05-19T11:17:26.785Z,84.80
2019-05-19T11:19:56.657Z,83.90
2019-05-19T11:22:26.494Z,85.50
2019-05-19T11:24:56.351Z,84.90
2019-05-19T11:27:26.573Z,86.20
2019-05-19T11:29:56.405Z,83.50
2019-05-19T11:32:26.263Z,83.60
2019-05-19T11:34:56.530Z,83.90
2019-05-19T11:37:26.370Z,85.50
2019-05-19T11:39:56.218Z,84.00
2019-05-19T11:42:26.082Z,83.50
2019-05-19T11:44:55.917Z,84.00
2019-05-19T11:47:25.779Z,85.20
2019-05-19T11:49:55.630Z,85.60
2019-05-19T11:52:25.479Z,86.00
2019-05-19T11:54:55.331Z,86.10
2019-05-19T11:57:25.180Z,84.90
2019-05-19T11:59:55.037Z,84.30
2019-05-19T12:02:24.878Z,83.30
2019-05-19T12:04:54.764Z,84.60
2019-05-19T12:07:24.599Z,82.50
2019-05-19T12:09:55.510Z,82.10
2019-05-19T12:12:25.360Z,82.80
2019-05-19T12:14:55.210Z,81.50
2019-05-19T12:17:25.481Z,83.90
2019-05-19T12:19:55.342Z,81.80
2019-05-19T12:22:25.196Z,82.70
2019-05-19T12:24:55.035Z,82.50
2019-05-19T12:27:24.887Z,83.50
2019-05-19T12:29:54.739Z,85.30
2019-05-19T12:32:24.734Z,83.70
2019-05-19T12:34:54.645Z,83.50
2019-05-19T12:37:24.486Z,84.50
2019-05-19T12:39:55.311Z,84.80
2019-05-19T12:42:25.145Z,86.10
2019-05-19T12:44:57.179Z,86.50
2019-05-19T12:47:27.421Z,84.20
2019-05-19T12:49:57.253Z,86.30
2019-05-19T12:52:27.106Z,86.10
2019-05-19T12:54:57.359Z,85.90
2019-05-19T12:57:27.179Z,87.20
2019-05-19T12:59:57.049Z,85.30
2019-05-19T13:02:26.909Z,86.30
2019-05-19T13:05:05.190Z,85.30
2019-05-19T13:07:28.223Z,85.90
2019-05-19T13:09:58.083Z,85.00
2019-05-19T13:12:27.921Z,83.90
2019-05-19T13:14:57.793Z,85.50
2019-05-19T13:17:27.633Z,85.40
2019-05-19T13:19:57.507Z,84.30
2019-05-19T13:22:27.363Z,83.30
2019-05-19T13:24:57.204Z,85.40
2019-05-19T13:27:28.148Z,83.30
2019-05-19T13:29:58.009Z,84.50
2019-05-19T13:32:27.865Z,84.30
2019-05-19T13:34:57.695Z,83.80
2019-05-19T13:37:27.561Z,84.50
2019-05-19T13:39:57.410Z,83.50
2019-05-19T13:42:27.603Z,85.60
2019-05-19T13:44:57.445Z,83.80
2019-05-19T13:47:27.292Z,82.30
2019-05-19T13:49:57.164Z,83.10
2019-05-19T13:52:27.004Z,84.40
2019-05-19T13:54:56.868Z,83.00
2019-05-19T13:57:27.786Z,82.30
2019-05-19T13:59:57.639Z,84.10
2019-05-19T14:02:27.505Z,85.40
2019-05-19T14:04:57.361Z,84.10
2019-05-19T14:07:27.204Z,82.10
2019-05-19T14:09:57.091Z,83.50
2019-05-19T14:12:26.959Z,81.70
2019-05-19T14:14:56.859Z,82.90
2019-05-19T14:17:26.733Z,82.20
2019-05-19T14:19:56.587Z,84.20
2019-05-19T14:22:26.519Z,84.90
2019-05-19T14:24:56.393Z,84.50
2019-05-19T14:27:30.571Z,83.70
2019-05-19T14:29:57.722Z,82.60
2019-05-19T14:32:27.597Z,83.70
2019-05-19T14:34:57.440Z,85.60
2019-05-19T14:37:27.666Z,84.80
2019-05-19T14:39:57.515Z,86.80
2019-05-19T14:42:44.023Z,87.90
2019-05-19T14:45:14.243Z,85.90
2019-05-19T14:47:44.110Z,90.30
2019-05-19T14:50:13.952Z,87.20
2019-05-19T14:52:45.439Z,86.30
2019-05-19T14:55:15.278Z,87.40
2019-05-19T14:57:45.752Z,85.40
2019-05-19T15:00:15.832Z,84.90
2019-05-19T15:02:45.684Z,84.90
2019-05-19T15:05:15.557Z,84.10
2019-05-19T15:07:45.390Z,85.70
2019-05-19T15:10:15.249Z,87.20
2019-05-19T15:12:45.411Z,86.30
2019-05-19T15:15:15.736Z,87.10
2019-05-19T15:17:46.658Z,88.40
2019-05-19T15:20:16.594Z,89.10
2019-05-19T15:22:46.448Z,89.40
2019-05-19T15:25:16.357Z,90.20
2019-05-19T15:27:59.243Z,92.40
2019-05-19T15:30:17.751Z,89.20
2019-05-19T15:32:47.915Z,89.80
2019-05-19T15:35:17.773Z,88.30
2019-05-19T15:37:47.614Z,87.50
2019-05-19T15:40:17.472Z,88.20
2019-05-19T15:42:47.314Z,85.70
2019-05-19T15:45:17.186Z,85.00
2019-05-19T15:47:47.022Z,85.00
2019-05-19T15:50:19.068Z,87.30
2019-05-19T15:52:48.928Z,87.30
2019-05-19T15:55:18.775Z,88.60
2019-05-19T15:57:49.005Z,87.60
2019-05-19T16:00:18.927Z,90.20
2019-05-19T16:02:48.790Z,89.70
2019-05-19T16:05:18.629Z,89.40
2019-05-19T16:07:48.471Z,89.20
2019-05-19T16:10:18.309Z,90.10
2019-05-19T16:12:48.155Z,88.20
2019-05-19T16:15:19.657Z,87.20
2019-05-19T16:17:49.531Z,90.20
2019-05-19T16:20:19.386Z,90.30
2019-05-19T16:22:51.004Z,90.20
2019-05-19T16:25:40.511Z,89.40
2019-05-19T16:28:10.435Z,87.60
2019-05-19T16:30:40.277Z,88.10
2019-05-19T16:33:10.231Z,87.60
2019-05-19T16:35:40.115Z,87.40
2019-05-19T16:38:09.986Z,88.20
2019-05-19T16:40:39.899Z,88.00
2019-05-19T16:43:09.795Z,88.50
2019-05-19T16:45:39.639Z,88.60
2019-05-19T16:48:09.497Z,87.00
2019-05-19T16:50:39.369Z,86.10
2019-05-19T16:53:09.201Z,90.00
2019-05-19T16:55:39.797Z,87.10
2019-05-19T16:58:20.701Z,86.50
2019-05-19T17:00:41.200Z,88.00
2019-05-19T17:03:11.111Z,89.00
2019-05-19T17:05:40.993Z,87.70
2019-05-19T17:08:10.898Z,86.40
2019-05-19T17:10:40.744Z,86.90
2019-05-19T17:13:10.931Z,87.50
2019-05-19T17:15:40.774Z,88.50
2019-05-19T17:18:10.613Z,89.90
2019-05-19T17:20:40.467Z,88.80
2019-05-19T17:23:10.340Z,89.50
2019-05-19T17:25:40.254Z,88.70
2019-05-19T17:28:10.118Z,89.80
2019-05-19T17:30:40.346Z,90.10
2019-05-19T17:33:10.194Z,90.20
2019-05-19T17:35:40.185Z,89.20
2019-05-19T17:38:10.375Z,88.30
2019-05-19T17:40:40.336Z,87.90
2019-05-19T17:43:11.808Z,88.10
2019-05-19T17:45:41.657Z,89.00
2019-05-19T17:48:25.376Z,89.60
2019-05-19T17:50:43.030Z,90.40
2019-05-19T17:53:12.857Z,90.80
2019-05-19T17:55:42.776Z,90.80
2019-05-19T17:58:12.644Z,91.10
2019-05-19T18:00:43.329Z,91.10
2019-05-19T18:03:13.682Z,91.10
2019-05-19T18:05:43.531Z,91.40
2019-05-19T18:08:13.393Z,91.10
2019-05-19T18:10:43.313Z,91.20
2019-05-19T18:13:13.167Z,91.20
2019-05-19T18:15:43.030Z,91.20
2019-05-19T18:18:12.886Z,91.20
2019-05-19T18:20:42.732Z,91.50
2019-05-19T18:23:12.589Z,91.70
2019-05-19T18:25:42.427Z,91.60
2019-05-19T18:28:12.315Z,91.40
2019-05-19T18:30:42.177Z,91.40
2019-05-19T18:33:12.038Z,91.50
2019-05-19T18:35:41.885Z,91.70
2019-05-19T18:38:11.750Z,91.80
2019-05-19T18:40:41.613Z,91.50
2019-05-19T18:43:11.465Z,91.50
2019-05-19T18:45:41.680Z,91.40
2019-05-19T18:48:11.568Z,91.50
2019-05-19T18:50:41.460Z,91.00
2019-05-19T18:53:11.618Z,91.10
2019-05-19T18:55:41.793Z,91.00
2019-05-19T18:58:12.606Z,91.10
2019-05-19T19:00:42.540Z,91.30
2019-05-19T19:03:12.400Z,91.40
2019-05-19T19:05:42.254Z,90.80
2019-05-19T19:08:12.108Z,90.20
2019-05-19T19:10:41.974Z,89.10
2019-05-19T19:13:12.166Z,87.80
2019-05-19T19:15:42.043Z,86.50
2019-05-19T19:18:11.988Z,86.00
2019-05-19T19:20:41.854Z,86.10
2019-05-19T19:23:11.691Z,86.10
2019-05-19T19:25:41.548Z,86.00
2019-05-19T19:28:11.409Z,85.90
2019-05-19T19:30:41.554Z,86.00
2019-05-19T19:33:11.399Z,86.20
2019-05-19T19:35:42.191Z,86.30
2019-05-19T19:38:12.069Z,85.80
2019-05-19T19:40:41.942Z,85.40
2019-05-19T19:43:12.185Z,84.40
2019-05-19T19:45:42.054Z,85.50
2019-05-19T19:48:11.926Z,83.90
2019-05-19T19:50:41.776Z,84.30
2019-05-19T19:53:11.636Z,84.40
2019-05-19T19:55:41.514Z,84.60
2019-05-19T19:58:11.767Z,84.60
2019-05-19T20:00:43.174Z,85.40
2019-05-19T20:03:13.036Z,85.30
2019-05-19T20:05:44.234Z,85.80
2019-05-19T20:08:14.160Z,85.60
2019-05-19T20:10:44.017Z,85.50
2019-05-19T20:13:13.876Z,85.50
2019-05-19T20:15:43.732Z,85.20
2019-05-19T20:18:13.611Z,85.40
2019-05-19T20:20:43.474Z,85.60
2019-05-19T20:23:13.331Z,84.90
2019-05-19T20:25:43.186Z,84.50
2019-05-19T20:28:13.050Z,86.00
2019-05-19T20:30:42.898Z,85.50
2019-05-19T20:33:12.756Z,85.40
2019-05-19T20:35:42.617Z,84.50
2019-05-19T20:38:12.468Z,84.00
2019-05-19T20:40:43.161Z,84.20
2019-05-19T20:43:15.326Z,84.50
2019-05-19T20:45:45.176Z,85.30
2019-05-19T20:48:15.039Z,86.00
2019-05-19T20:50:44.887Z,85.40
2019-05-19T20:53:14.730Z,85.60
2019-05-19T20:55:44.596Z,85.00
2019-05-19T20:58:14.452Z,85.30
2019-05-19T21:00:50.317Z,85.60
2019-05-19T21:03:15.834Z,85.40
2019-05-19T21:05:45.705Z,84.90
2019-05-19T21:08:15.550Z,85.00
2019-05-19T21:10:45.404Z,84.80
2019-05-19T21:13:15.245Z,84.70
2019-05-19T21:15:45.102Z,84.90
2019-05-19T21:18:14.945Z,85.10
2019-05-19T21:30:42.484Z,82.40
2019-05-19T21:33:12.335Z,83.30
2019-05-19T21:35:42.202Z,83.80
2019-05-19T21:38:12.451Z,84.30
2019-05-19T21:40:42.331Z,84.80
2019-05-19T21:43:12.184Z,85.60
2019-05-19T21:45:42.112Z,84.70
2019-05-19T21:48:11.962Z,85.60
2019-05-19T21:50:41.885Z,85.60
2019-05-19T21:53:12.152Z,84.90
2019-05-19T21:55:42.009Z,84.40
2019-05-19T21:58:11.855Z,84.80
2019-05-19T22:00:42.176Z,85.20
2019-05-19T22:03:12.112Z,85.70
2019-05-19T22:05:52.804Z,85.50
2019-05-19T22:08:15.075Z,85.30
2019-05-19T22:10:44.921Z,85.60
2019-05-19T22:13:14.812Z,85.70
2019-05-19T22:15:44.642Z,85.30
2019-05-19T22:18:14.521Z,85.40
2019-05-19T22:20:44.396Z,85.60
2019-05-19T22:23:14.250Z,85.50
2019-05-19T22:25:44.079Z,84.60
2019-05-19T22:28:13.937Z,84.40
2019-05-19T22:30:45.430Z,85.70
2019-05-19T22:33:15.271Z,85.30
2019-05-19T22:35:45.133Z,85.50
2019-05-19T22:38:14.978Z,85.70
2019-05-19T22:40:44.854Z,85.70
2019-05-19T22:43:14.689Z,86.50
2019-05-19T22:45:44.547Z,85.40
2019-05-19T22:48:14.470Z,85.60
2019-05-19T22:50:44.326Z,86.20
2019-05-19T22:53:14.170Z,85.50
2019-05-19T22:55:44.409Z,85.40
2019-05-19T22:58:14.279Z,85.20
2019-05-19T23:00:44.913Z,85.10
2019-05-19T23:03:16.401Z,85.50
2019-05-19T23:05:46.245Z,85.00
2019-05-19T23:08:16.186Z,84.60
2019-05-19T23:10:46.035Z,84.40
2019-05-19T23:13:16.179Z,84.10
2019-05-19T23:15:46.449Z,84.10
2019-05-19T23:18:16.315Z,84.00
2019-05-19T23:20:46.148Z,84.30
2019-05-19T23:23:15.997Z,84.30
2019-05-19T23:25:46.163Z,84.30
2019-05-19T23:28:16.336Z,84.20
2019-05-19T23:30:46.177Z,83.80
2019-05-19T23:33:17.121Z,83.80
2019-05-19T23:35:46.971Z,83.80
2019-05-19T23:38:16.893Z,83.80
2019-05-19T23:40:47.181Z,84.00
2019-05-19T23:43:17.027Z,83.60
2019-05-19T23:45:46.883Z,83.30
2019-05-19T23:48:16.746Z,83.30
2019-05-19T23:50:46.605Z,83.20
2019-05-19T23:53:16.454Z,83.40
2019-05-19T23:55:46.331Z,83.70
2019-05-19T23:58:16.182Z,83.70
